createdAt,value
2022-10-12T00:00:35.035Z,5.60
2022-10-12T00:03:02.982Z,5.73
2022-10-12T00:05:30.901Z,6.53
2022-10-12T00:07:58.806Z,5.70
2022-10-12T00:10:26.732Z,6.33
2022-10-12T00:12:56.151Z,5.27
2022-10-12T00:15:24.083Z,5.83
2022-10-12T00:17:52.011Z,6.20
2022-10-12T00:20:19.911Z,6.63
2022-10-12T00:22:47.826Z,6.33
2022-10-12T00:25:15.803Z,6.20
2022-10-12T00:27:43.695Z,6.00
2022-10-12T00:30:14.242Z,6.13
2022-10-12T00:32:42.238Z,5.77
2022-10-12T00:35:10.291Z,5.67
2022-10-12T00:37:38.609Z,5.90
2022-10-12T00:40:07.390Z,5.80
2022-10-12T00:42:35.870Z,6.47
2022-10-12T00:45:03.795Z,6.80
2022-10-12T00:47:35.181Z,6.03
2022-10-12T00:50:05.813Z,5.90
2022-10-12T00:52:37.291Z,5.80
2022-10-12T00:55:05.738Z,6.50
2022-10-12T00:57:33.670Z,6.73
2022-10-12T01:00:03.004Z,6.37
2022-10-12T01:02:33.508Z,5.50
2022-10-12T01:05:02.055Z,6.80
2022-10-12T01:07:30.018Z,6.60
2022-10-12T01:09:57.964Z,6.10
2022-10-12T01:12:26.085Z,6.83
2022-10-12T01:14:54.017Z,6.00
2022-10-12T01:17:29.989Z,7.47
2022-10-12T01:20:11.551Z,6.43
2022-10-12T01:22:43.501Z,6.50
2022-10-12T01:25:17.001Z,6.97
2022-10-12T01:27:47.462Z,6.87
2022-10-12T01:30:18.545Z,6.73
2022-10-12T01:33:03.985Z,6.47
2022-10-12T01:35:34.748Z,6.40
2022-10-12T01:38:06.435Z,6.70
2022-10-12T01:40:38.756Z,6.30
2022-10-12T01:43:07.184Z,6.70
2022-10-12T01:45:36.493Z,6.10
2022-10-12T01:48:04.983Z,6.10
2022-10-12T01:50:36.161Z,6.60
2022-10-12T01:53:09.980Z,6.13
2022-10-12T01:55:40.360Z,6.33
2022-10-12T01:58:23.627Z,7.00
2022-10-12T02:00:56.833Z,6.27
2022-10-12T02:03:28.597Z,7.33
2022-10-12T02:05:58.900Z,6.93
2022-10-12T02:08:28.356Z,6.03
2022-10-12T02:10:58.727Z,6.73
2022-10-12T02:13:27.784Z,7.70
2022-10-12T02:15:59.868Z,6.30
2022-10-12T02:18:28.828Z,6.60
2022-10-12T02:20:59.641Z,6.77
2022-10-12T02:23:28.708Z,6.50
2022-10-12T02:25:57.645Z,6.50
2022-10-12T02:28:27.800Z,6.43
2022-10-12T02:31:01.063Z,6.80
2022-10-12T02:33:31.443Z,7.30
2022-10-12T02:36:02.296Z,6.83
2022-10-12T02:38:33.355Z,6.23
2022-10-12T02:41:03.609Z,6.97
2022-10-12T02:43:34.546Z,7.30
2022-10-12T02:46:05.859Z,6.97
2022-10-12T02:48:34.472Z,7.30
2022-10-12T02:51:02.477Z,6.47
2022-10-12T02:53:31.290Z,7.40
2022-10-12T02:56:02.167Z,7.70
2022-10-12T02:58:30.093Z,7.67
2022-10-12T03:00:58.121Z,7.40
2022-10-12T03:03:27.501Z,8.67
2022-10-12T03:05:55.406Z,7.57
2022-10-12T03:08:23.365Z,8.80
2022-10-12T03:10:51.310Z,8.00
2022-10-12T03:13:19.562Z,7.63
2022-10-12T03:15:47.459Z,8.30
2022-10-12T03:18:15.374Z,8.33
2022-10-12T03:20:48.869Z,8.93
2022-10-12T03:23:16.764Z,8.57
2022-10-12T03:25:44.700Z,7.00
2022-10-12T03:28:12.678Z,8.30
2022-10-12T03:30:40.645Z,7.77
2022-10-12T03:33:08.562Z,7.57
2022-10-12T03:35:36.476Z,7.53
2022-10-12T03:38:05.867Z,7.90
2022-10-12T03:40:33.773Z,8.53
2022-10-12T03:43:01.713Z,8.30
2022-10-12T03:45:29.598Z,8.33
2022-10-12T03:47:59.982Z,8.40
2022-10-12T03:50:33.714Z,8.57
2022-10-12T03:53:01.654Z,8.53
2022-10-12T03:55:31.211Z,8.13
2022-10-12T03:57:59.176Z,8.37
2022-10-12T04:00:28.300Z,8.00
2022-10-12T04:02:56.402Z,8.43
2022-10-12T04:05:24.395Z,8.63
2022-10-12T04:07:52.296Z,8.87
2022-10-12T04:10:20.234Z,8.90
2022-10-12T04:12:49.582Z,8.23
2022-10-12T04:15:18.338Z,8.73
2022-10-12T04:17:46.288Z,8.07
2022-10-12T04:20:14.264Z,9.10
2022-10-12T04:22:42.206Z,8.93
2022-10-12T04:25:11.571Z,8.47
2022-10-12T04:27:39.851Z,8.50
2022-10-12T04:30:10.515Z,9.03
2022-10-12T04:32:38.561Z,8.83
2022-10-12T04:35:06.766Z,7.80
2022-10-12T04:37:34.770Z,7.87
2022-10-12T04:40:03.351Z,8.17
2022-10-12T04:42:31.350Z,8.30
2022-10-12T04:44:59.291Z,9.07
2022-10-12T04:47:28.723Z,8.93
2022-10-12T04:49:56.635Z,8.93
2022-10-12T04:52:24.528Z,9.13
2022-10-12T04:54:52.490Z,8.07
2022-10-12T04:57:20.440Z,8.03
2022-10-12T04:59:48.340Z,8.00
2022-10-12T05:02:16.431Z,7.93
2022-10-12T05:04:45.779Z,9.57
2022-10-12T05:07:13.734Z,8.70
2022-10-12T05:09:41.660Z,8.70
2022-10-12T05:12:09.659Z,8.83
2022-10-12T05:14:38.496Z,9.17
2022-10-12T05:17:06.382Z,9.50
2022-10-12T05:19:34.291Z,9.27
2022-10-12T05:22:03.706Z,9.07
2022-10-12T05:24:31.640Z,9.57
2022-10-12T05:26:59.554Z,10.53
2022-10-12T05:29:27.497Z,11.00
2022-10-12T05:31:55.524Z,9.53
2022-10-12T05:34:23.450Z,9.50
2022-10-12T05:36:51.336Z,10.53
2022-10-12T05:39:20.715Z,10.17
2022-10-12T05:41:48.623Z,11.17
2022-10-12T05:44:16.515Z,10.53
2022-10-12T05:46:44.530Z,9.30
2022-10-12T05:49:12.485Z,10.10
2022-10-12T05:51:40.709Z,9.53
2022-10-12T05:54:09.579Z,10.33
2022-10-12T05:56:38.934Z,9.67
2022-10-12T05:59:06.896Z,9.00
2022-10-12T06:01:34.952Z,10.17
2022-10-12T06:04:03.052Z,10.23
2022-10-12T06:06:30.982Z,10.57
2022-10-12T06:08:58.901Z,9.77
2022-10-12T06:11:26.886Z,10.23
2022-10-12T06:13:56.245Z,10.70
2022-10-12T06:16:24.391Z,11.23
2022-10-12T06:18:52.314Z,9.97
2022-10-12T06:21:32.896Z,10.90
2022-10-12T06:24:02.075Z,11.23
2022-10-12T06:26:30.246Z,10.87
2022-10-12T06:29:00.952Z,11.40
2022-10-12T06:31:29.026Z,11.37
2022-10-12T06:33:56.956Z,11.40
2022-10-12T06:36:24.922Z,10.93
2022-10-12T06:38:52.883Z,10.57
2022-10-12T06:41:20.913Z,10.80
2022-10-12T06:43:48.836Z,11.27
2022-10-12T06:46:18.207Z,11.43
2022-10-12T06:48:46.184Z,10.90
2022-10-12T06:51:14.120Z,11.63
2022-10-12T06:53:42.094Z,11.90
2022-10-12T06:56:10.904Z,11.63
2022-10-12T06:58:38.839Z,11.23
2022-10-12T07:01:07.354Z,11.10
2022-10-12T07:03:36.808Z,11.63
2022-10-12T07:06:08.807Z,11.63
2022-10-12T07:08:36.770Z,12.13
2022-10-12T07:11:05.296Z,12.73
2022-10-12T07:13:33.603Z,12.07
2022-10-12T07:16:01.510Z,11.87
2022-10-12T07:18:29.540Z,11.73
2022-10-12T07:20:59.984Z,12.33
2022-10-12T07:23:28.068Z,12.43
2022-10-12T07:25:56.007Z,11.53
2022-10-12T07:28:24.290Z,11.50
2022-10-12T07:30:52.349Z,11.67
2022-10-12T07:33:20.385Z,11.67
2022-10-12T07:36:12.783Z,11.80
2022-10-12T07:38:45.459Z,11.90
2022-10-12T07:41:13.581Z,12.40
2022-10-12T07:43:41.732Z,11.93
2022-10-12T07:46:09.754Z,11.30
2022-10-12T07:48:37.989Z,11.77
2022-10-12T07:51:06.410Z,11.10
2022-10-12T07:53:35.209Z,13.60
2022-10-12T07:56:05.430Z,12.17
2022-10-12T07:58:33.497Z,11.93
2022-10-12T08:01:05.393Z,11.20
2022-10-12T08:03:33.716Z,10.97
2022-10-12T08:06:01.846Z,11.07
2022-10-12T08:08:29.807Z,11.43
2022-10-12T08:11:01.969Z,10.87
2022-10-12T08:13:31.389Z,11.23
2022-10-12T08:15:59.555Z,11.53
2022-10-12T08:18:27.751Z,11.97
2022-10-12T08:20:55.721Z,11.40
2022-10-12T08:23:23.964Z,10.90
2022-10-12T08:25:55.528Z,12.37
2022-10-12T08:28:23.829Z,10.57
2022-10-12T08:30:53.227Z,10.70
2022-10-12T08:33:21.778Z,12.17
2022-10-12T08:35:49.887Z,12.03
2022-10-12T08:38:17.936Z,11.00
2022-10-12T08:40:50.819Z,11.03
2022-10-12T08:43:25.764Z,11.70
2022-10-12T08:45:56.167Z,10.77
2022-10-12T08:48:26.939Z,10.13
2022-10-12T08:53:31.647Z,9.73
2022-10-12T08:56:01.532Z,9.17
2022-10-12T08:58:32.711Z,9.03
2022-10-12T09:01:11.678Z,9.30
2022-10-12T09:03:48.827Z,9.10
2022-10-12T09:06:20.056Z,9.33
2022-10-12T09:08:57.195Z,8.90
2022-10-12T09:11:30.043Z,9.43
2022-10-12T09:14:01.024Z,10.23
2022-10-12T09:16:32.020Z,9.67
2022-10-12T09:19:01.798Z,10.83
2022-10-12T09:21:30.352Z,10.50
2022-10-12T09:23:58.833Z,10.37
2022-10-12T09:26:31.315Z,9.40
2022-10-12T09:28:59.675Z,10.60
2022-10-12T09:31:37.130Z,11.40
2022-10-12T09:34:06.920Z,10.30
2022-10-12T09:36:35.909Z,10.43
2022-10-12T09:39:05.361Z,10.83
2022-10-12T09:41:34.866Z,10.70
2022-10-12T09:44:03.986Z,9.37
2022-10-12T09:46:38.599Z,10.73
2022-10-12T09:49:06.847Z,9.50
2022-10-12T09:51:34.978Z,10.50
2022-10-12T09:54:04.673Z,10.57
2022-10-12T09:56:39.898Z,10.57
2022-10-12T09:59:09.546Z,10.73
2022-10-12T10:01:39.931Z,9.63
2022-10-12T10:04:09.479Z,11.07
2022-10-12T10:06:37.843Z,10.03
2022-10-12T10:09:06.019Z,10.07
2022-10-12T10:11:33.949Z,10.47
2022-10-12T10:14:02.561Z,10.30
2022-10-12T10:16:31.603Z,9.77
2022-10-12T10:19:03.165Z,10.27
2022-10-12T10:21:33.163Z,9.43
2022-10-12T10:24:01.922Z,11.00
2022-10-12T10:26:32.271Z,10.30
2022-10-12T10:29:16.718Z,11.00
2022-10-12T10:31:46.566Z,10.57
2022-10-12T10:34:20.576Z,9.77
2022-10-12T10:36:49.048Z,10.47
2022-10-12T10:39:21.915Z,10.17
2022-10-12T10:41:50.329Z,9.93
2022-10-12T10:44:31.408Z,10.27
2022-10-12T10:47:01.129Z,10.70
2022-10-12T10:49:38.115Z,9.53
2022-10-12T10:52:07.222Z,10.50
2022-10-12T10:54:36.613Z,10.23
2022-10-12T10:57:06.200Z,9.77
2022-10-12T10:59:39.409Z,10.63
2022-10-12T11:02:13.363Z,10.60
2022-10-12T11:04:44.848Z,10.43
2022-10-12T11:07:18.193Z,11.20
2022-10-12T11:09:49.207Z,10.10
2022-10-12T11:12:19.373Z,10.23
2022-10-12T11:14:49.311Z,10.00
2022-10-12T11:17:19.875Z,10.10
2022-10-12T11:19:51.980Z,10.43
2022-10-12T11:22:21.411Z,9.80
2022-10-12T11:24:52.522Z,9.60
2022-10-12T11:27:24.068Z,10.10
2022-10-12T11:30:02.921Z,10.17
2022-10-12T11:32:38.090Z,9.57
2022-10-12T11:35:08.718Z,9.43
2022-10-12T11:37:39.761Z,9.70
2022-10-12T11:40:09.489Z,10.17
2022-10-12T11:42:43.403Z,9.87
2022-10-12T11:45:19.224Z,11.10
2022-10-12T11:47:49.323Z,10.50
2022-10-12T11:50:25.365Z,11.00
2022-10-12T11:52:55.024Z,10.03
2022-10-12T11:55:28.290Z,9.50
2022-10-12T11:57:56.968Z,10.33
2022-10-12T12:00:26.169Z,11.27
2022-10-12T12:02:57.104Z,10.53
2022-10-12T12:05:32.427Z,9.93
2022-10-12T12:08:00.507Z,10.40
2022-10-12T12:10:46.882Z,11.30
2022-10-12T12:13:19.516Z,10.30
2022-10-12T12:16:02.246Z,10.37
2022-10-12T12:18:31.467Z,9.53
2022-10-12T12:21:05.386Z,9.30
2022-10-12T12:23:37.418Z,9.23
2022-10-12T12:26:16.876Z,9.57
2022-10-12T12:28:46.297Z,9.53
2022-10-12T12:31:16.349Z,9.10
2022-10-12T12:33:46.476Z,8.73
2022-10-12T12:36:16.998Z,9.53
2022-10-12T12:38:51.324Z,10.33
2022-10-12T12:41:19.985Z,9.97
2022-10-12T12:43:57.992Z,9.90
2022-10-12T12:46:27.304Z,8.87
2022-10-12T12:49:02.128Z,9.50
2022-10-12T12:51:42.309Z,9.67
2022-10-12T12:54:16.679Z,9.73
2022-10-12T12:56:52.610Z,9.80
2022-10-12T12:59:39.236Z,9.53
2022-10-12T13:02:19.156Z,10.03
2022-10-12T13:05:02.122Z,9.03
2022-10-12T13:07:47.845Z,8.73
2022-10-12T13:10:23.044Z,8.47
2022-10-12T13:12:58.047Z,8.63
2022-10-12T13:15:33.166Z,8.87
2022-10-12T13:18:28.416Z,8.77
2022-10-12T13:21:00.019Z,8.67
2022-10-12T13:23:29.599Z,7.93
2022-10-12T13:26:00.389Z,7.67
2022-10-12T13:28:29.872Z,7.60
2022-10-12T13:31:00.784Z,8.87
2022-10-12T13:33:32.425Z,8.23
2022-10-12T13:36:03.757Z,8.67
2022-10-12T13:38:34.973Z,8.63
2022-10-12T13:41:07.582Z,7.47
2022-10-12T13:43:39.030Z,7.40
2022-10-12T13:46:07.465Z,8.70
2022-10-12T13:48:58.249Z,7.77
2022-10-12T13:51:25.110Z,9.23
2022-10-12T13:53:54.439Z,7.53
2022-10-12T13:56:24.673Z,7.73
2022-10-12T13:58:56.283Z,7.83
2022-10-12T14:01:24.344Z,8.50
2022-10-12T14:03:52.314Z,8.07
2022-10-12T14:06:28.405Z,7.57
2022-10-12T14:08:58.998Z,7.90
2022-10-12T14:11:27.782Z,7.57
2022-10-12T14:13:55.798Z,7.83
2022-10-12T14:16:23.718Z,6.97
2022-10-12T14:18:52.045Z,6.80
2022-10-12T14:21:23.626Z,7.23
2022-10-12T14:23:52.663Z,7.27
2022-10-12T14:26:26.356Z,7.77
2022-10-12T14:28:54.453Z,7.53
2022-10-12T14:31:37.188Z,7.43
2022-10-12T14:34:19.933Z,6.67
2022-10-12T14:36:47.856Z,6.77
2022-10-12T14:39:15.801Z,7.20
2022-10-12T14:41:51.446Z,8.23
2022-10-12T14:44:20.064Z,7.20
2022-10-12T14:46:51.698Z,6.40
2022-10-12T14:49:20.909Z,7.03
2022-10-12T14:51:49.192Z,6.47
2022-10-12T14:54:17.239Z,6.60
2022-10-12T14:56:46.669Z,7.57
2022-10-12T14:59:14.664Z,6.63
2022-10-12T15:01:44.276Z,6.83
2022-10-12T15:04:15.529Z,6.13
2022-10-12T15:06:46.984Z,5.97
2022-10-12T15:09:17.826Z,7.27
2022-10-12T15:11:47.283Z,6.53
2022-10-12T15:14:15.534Z,5.77
2022-10-12T15:16:43.466Z,6.47
2022-10-12T15:19:11.450Z,6.30
2022-10-12T15:21:39.372Z,5.90
2022-10-12T15:24:14.993Z,5.90
2022-10-12T15:26:42.942Z,5.30
2022-10-12T15:29:12.459Z,5.60
2022-10-12T15:31:40.466Z,6.10
2022-10-12T15:34:11.448Z,5.87
2022-10-12T15:36:39.669Z,5.07
2022-10-12T15:39:07.667Z,5.80
2022-10-12T15:41:35.624Z,6.40
2022-10-12T15:44:03.651Z,4.87
2022-10-12T15:46:33.002Z,5.47
2022-10-12T15:49:00.958Z,5.23
2022-10-12T15:51:28.970Z,5.63
2022-10-12T15:53:57.163Z,6.33
2022-10-12T15:56:25.115Z,5.47
2022-10-12T15:58:53.017Z,6.20
2022-10-12T16:01:21.363Z,5.30
2022-10-12T16:03:50.999Z,5.70
2022-10-12T16:06:18.911Z,5.47
2022-10-12T16:08:47.157Z,5.37
2022-10-12T16:11:16.822Z,5.67
2022-10-12T16:13:49.959Z,5.87
2022-10-12T16:16:20.768Z,5.70
2022-10-12T16:18:48.735Z,5.60
2022-10-12T16:21:18.048Z,6.53
2022-10-12T16:23:45.994Z,6.07
2022-10-12T16:26:14.842Z,5.57
2022-10-12T16:28:42.780Z,5.17
2022-10-12T16:31:11.734Z,5.73
2022-10-12T16:33:41.497Z,6.30
2022-10-12T16:36:11.096Z,5.37
2022-10-12T16:38:40.443Z,5.70
2022-10-12T16:41:12.497Z,5.53
2022-10-12T16:43:40.594Z,6.67
2022-10-12T16:46:09.129Z,5.80
2022-10-12T16:48:37.324Z,5.77
2022-10-12T16:51:07.657Z,6.43
2022-10-12T16:53:35.622Z,6.03
2022-10-12T16:56:05.381Z,6.43
2022-10-12T16:58:33.600Z,6.40
2022-10-12T17:01:08.704Z,6.63
2022-10-12T17:03:36.774Z,6.13
2022-10-12T17:06:05.018Z,7.13
2022-10-12T17:08:34.157Z,7.03
2022-10-12T17:11:07.353Z,7.40
2022-10-12T17:13:37.172Z,7.70
2022-10-12T17:16:25.906Z,9.57
2022-10-12T17:18:58.950Z,9.27
2022-10-12T17:21:27.913Z,10.07
2022-10-12T17:23:57.240Z,10.73
2022-10-12T17:26:26.733Z,10.23
2022-10-12T17:28:55.050Z,10.67
2022-10-12T17:31:23.261Z,9.63
2022-10-12T17:33:51.324Z,10.43
2022-10-12T17:36:19.253Z,11.13
2022-10-12T17:38:47.220Z,11.87
2022-10-12T17:41:15.279Z,10.70
2022-10-12T17:43:44.657Z,10.80
2022-10-12T17:46:12.714Z,11.27
2022-10-12T17:48:40.735Z,11.63
2022-10-12T17:51:10.049Z,11.57
2022-10-12T17:53:37.986Z,10.37
2022-10-12T17:56:06.734Z,11.00
2022-10-12T17:58:34.638Z,11.73
2022-10-12T18:01:06.628Z,11.27
2022-10-12T18:03:34.757Z,10.90
2022-10-12T18:06:05.720Z,10.23
2022-10-12T18:08:33.932Z,11.03
2022-10-12T18:11:02.374Z,11.23
2022-10-12T18:13:30.824Z,12.33
2022-10-12T18:15:58.923Z,10.40
2022-10-12T18:18:28.441Z,11.23
2022-10-12T18:20:56.381Z,10.77
2022-10-12T18:23:24.439Z,10.50
2022-10-12T18:25:52.339Z,10.50
2022-10-12T18:28:20.331Z,12.50
2022-10-12T18:30:48.497Z,10.73
2022-10-12T18:33:17.142Z,11.83
2022-10-12T18:35:46.488Z,21.50
2022-10-12T18:38:14.442Z,17.13
2022-10-12T18:40:42.600Z,11.33
2022-10-12T18:43:10.642Z,11.77
2022-10-12T18:45:41.882Z,11.17
2022-10-12T18:48:09.781Z,10.87
2022-10-12T18:50:37.731Z,16.43
2022-10-12T18:53:07.088Z,13.40
2022-10-12T18:55:37.609Z,11.67
2022-10-12T18:58:05.554Z,11.70
2022-10-12T19:00:33.568Z,11.73
2022-10-12T19:03:01.676Z,13.20
2022-10-12T19:05:29.590Z,12.67
2022-10-12T19:07:57.479Z,13.63
2022-10-12T19:10:26.823Z,13.83
2022-10-12T19:12:54.720Z,13.97
2022-10-12T19:15:22.710Z,13.67
2022-10-12T19:17:50.621Z,13.87
2022-10-12T19:20:18.655Z,12.40
2022-10-12T19:22:46.608Z,12.43
2022-10-12T19:25:14.554Z,14.17
2022-10-12T19:27:43.996Z,13.03
2022-10-12T19:30:12.360Z,13.93
2022-10-12T19:32:40.326Z,13.50
2022-10-12T19:35:08.716Z,13.53
2022-10-12T19:37:37.424Z,14.17
2022-10-12T19:40:07.837Z,14.60
2022-10-12T19:42:36.117Z,13.60
2022-10-12T19:45:05.944Z,13.37
2022-10-12T19:47:34.974Z,14.77
2022-10-12T19:50:02.960Z,14.20
2022-10-12T19:52:30.986Z,14.13
2022-10-12T19:54:58.890Z,14.63
2022-10-12T19:57:28.287Z,14.33
2022-10-12T19:59:56.215Z,14.30
2022-10-12T20:02:25.587Z,15.00
2022-10-12T20:04:54.391Z,14.20
2022-10-12T20:07:22.334Z,13.80
2022-10-12T20:09:50.263Z,13.93
2022-10-12T20:12:18.546Z,15.17
2022-10-12T20:14:46.732Z,14.90
2022-10-12T20:17:14.654Z,14.53
2022-10-12T20:19:43.957Z,15.97
2022-10-12T20:22:11.913Z,14.67
2022-10-12T20:24:39.824Z,14.90
2022-10-12T20:27:07.732Z,15.60
2022-10-12T20:29:35.811Z,16.23
2022-10-12T20:32:03.712Z,16.00
2022-10-12T20:34:31.730Z,15.47
2022-10-12T20:37:01.078Z,13.80
2022-10-12T20:39:28.980Z,13.97
2022-10-12T20:41:56.923Z,14.10
2022-10-12T20:44:24.824Z,14.23
2022-10-12T20:46:52.744Z,15.17
2022-10-12T20:49:20.661Z,14.53
2022-10-12T20:51:48.622Z,14.87
2022-10-12T20:54:19.051Z,16.43
2022-10-12T20:56:48.017Z,15.00
2022-10-12T20:59:16.053Z,15.30
2022-10-12T21:01:43.988Z,15.20
2022-10-12T21:04:11.887Z,14.37
2022-10-12T21:06:39.939Z,15.40
2022-10-12T21:09:07.957Z,14.77
2022-10-12T21:11:38.172Z,14.23
2022-10-12T21:14:06.064Z,15.33
2022-10-12T21:16:34.250Z,15.73
2022-10-12T21:19:02.138Z,15.10
2022-10-12T21:21:30.094Z,15.33
2022-10-12T21:23:58.895Z,14.67
2022-10-12T21:26:28.065Z,15.47
2022-10-12T21:28:57.613Z,15.70
2022-10-12T21:31:30.952Z,15.43
2022-10-12T21:34:01.138Z,14.60
2022-10-12T21:36:29.538Z,15.63
2022-10-12T21:38:57.735Z,14.70
2022-10-12T21:41:26.551Z,17.13
2022-10-12T21:43:54.890Z,16.07
2022-10-12T21:46:25.496Z,15.57
2022-10-12T21:48:53.812Z,15.97
2022-10-12T21:51:22.744Z,15.20
2022-10-12T21:53:50.785Z,15.10
2022-10-12T21:56:20.042Z,16.03
2022-10-12T21:58:48.294Z,14.77
2022-10-12T22:01:17.663Z,15.43
2022-10-12T22:03:48.183Z,15.43
2022-10-12T22:06:16.703Z,14.90
2022-10-12T22:08:44.902Z,14.53
2022-10-12T22:11:13.541Z,15.50
2022-10-12T22:13:41.460Z,14.10
2022-10-12T22:16:10.299Z,14.33
2022-10-12T22:18:38.270Z,14.13
2022-10-12T22:21:10.936Z,14.17
2022-10-12T22:23:38.870Z,15.00
2022-10-12T22:26:07.933Z,14.00
2022-10-12T22:28:36.259Z,13.80
2022-10-12T22:31:06.826Z,14.37
2022-10-12T22:33:34.872Z,14.40
2022-10-12T22:36:02.780Z,14.13
2022-10-12T22:38:32.187Z,15.20
2022-10-12T22:41:00.841Z,14.90
2022-10-12T22:43:29.511Z,14.13
2022-10-12T22:45:58.071Z,14.77
2022-10-12T22:48:26.337Z,15.37
2022-10-12T22:50:54.551Z,13.50
2022-10-12T22:53:23.207Z,14.67
2022-10-12T22:55:55.402Z,15.03
2022-10-12T22:58:23.505Z,14.40
2022-10-12T23:00:51.431Z,14.57
2022-10-12T23:03:19.322Z,12.33
2022-10-12T23:05:49.173Z,13.93
2022-10-12T23:08:17.115Z,13.30
2022-10-12T23:10:45.063Z,14.43
2022-10-12T23:13:14.438Z,14.07
2022-10-12T23:15:42.344Z,14.17
2022-10-12T23:18:10.234Z,12.90
2022-10-12T23:20:40.050Z,14.23
2022-10-12T23:23:08.072Z,14.57
2022-10-12T23:25:36.016Z,14.30
2022-10-12T23:28:03.983Z,13.77
2022-10-12T23:30:33.327Z,14.27
2022-10-12T23:33:01.219Z,14.07
2022-10-12T23:35:29.151Z,14.47
2022-10-12T23:37:57.068Z,13.63
2022-10-12T23:40:24.955Z,12.90
2022-10-12T23:42:52.888Z,13.50
2022-10-12T23:45:20.775Z,13.37
2022-10-12T23:47:50.097Z,12.73
2022-10-12T23:50:18.117Z,13.37
2022-10-12T23:52:46.091Z,13.67
2022-10-12T23:55:13.984Z,13.87
2022-10-12T23:57:47.266Z,13.70
